Time;durP1;ratioP1;P1;durP2;ratioP2;P2;SDS_P1;SDS_P2;PMS_P1;PMS_P2;Temp;Humidity;BMP_temperature;BMP_pressure;BME280_temperature;BME280_humidity;BME280_pressure;Samples;Min_cycle;Max_cycle;Signal;HPM_P1;HPM_P2
2024/01/15 00:02:26;;;;;;;14.40;9.70;;;;;;;;;;5077347;28;20196;-77
2024/01/15 00:04:53;;;;;;;13.73;8.10;;;;;;;;;;5090287;28;20201;-78
2024/01/15 00:07:20;;;;;;;9.33;7.87;;;;;;;;;;5090625;28;20197;-77
2024/01/15 00:09:46;;;;;;;11.30;8.87;;;;;;;;;;5090504;28;20662;-77
2024/01/15 00:12:13;;;;;;;12.70;8.93;;;;;;;;;;5090991;28;20204;-77
2024/01/15 00:14:40;;;;;;;18.43;10.60;;;;;;;;;;5090332;28;20196;-77
2024/01/15 00:17:08;;;;;;;14.87;10.23;;;;;;;;;;5090586;28;20185;-77
2024/01/15 00:19:37;;;;;;;18.07;11.33;;;;;;;;;;5090386;28;20709;-77
2024/01/15 00:22:05;;;;;;;18.03;11.77;;;;;;;;;;5090231;28;20299;-77
2024/01/15 00:24:31;;;;;;;14.40;11.63;;;;;;;;;;5090686;28;20207;-77
2024/01/15 00:26:58;;;;;;;14.37;9.77;;;;;;;;;;5090189;28;20609;-78
2024/01/15 00:29:25;;;;;;;14.67;9.73;;;;;;;;;;5090585;28;20232;-77
2024/01/15 00:31:52;;;;;;;12.17;9.10;;;;;;;;;;5090727;28;20207;-77
2024/01/15 00:34:20;;;;;;;14.67;9.77;;;;;;;;;;5090592;28;20219;-77
2024/01/15 00:36:47;;;;;;;15.40;10.97;;;;;;;;;;5090392;28;20201;-77
2024/01/15 00:39:14;;;;;;;19.07;11.13;;;;;;;;;;5090511;28;20207;-77
2024/01/15 00:41:40;;;;;;;14.23;10.10;;;;;;;;;;5090279;28;20200;-76
2024/01/15 00:44:07;;;;;;;16.17;9.93;;;;;;;;;;5090343;28;20208;-75
2024/01/15 00:46:34;;;;;;;15.63;10.33;;;;;;;;;;5090955;28;20730;-77
2024/01/15 00:49:01;;;;;;;21.37;10.10;;;;;;;;;;5094083;28;20211;-77
2024/01/15 00:51:29;;;;;;;18.07;10.37;;;;;;;;;;5093927;28;20196;-77
2024/01/15 00:53:56;;;;;;;16.63;10.53;;;;;;;;;;5093637;28;20205;-77
2024/01/15 00:56:23;;;;;;;16.00;10.23;;;;;;;;;;5093819;28;20250;-77
2024/01/15 00:58:50;;;;;;;19.40;12.57;;;;;;;;;;5094103;28;20201;-77
2024/01/15 01:01:17;;;;;;;20.20;13.07;;;;;;;;;;5094170;28;20265;-78
2024/01/15 01:03:43;;;;;;;75.70;38.70;;;;;;;;;;5093657;28;20204;-77
2024/01/15 01:06:13;;;;;;;19.63;13.17;;;;;;;;;;5093584;28;20231;-77
2024/01/15 01:08:41;;;;;;;17.50;9.83;;;;;;;;;;5093359;28;20204;-78
2024/01/15 01:11:08;;;;;;;14.97;9.10;;;;;;;;;;5093580;28;20204;-78
2024/01/15 01:13:34;;;;;;;12.87;10.20;;;;;;;;;;5093512;28;20688;-78
2024/01/15 01:16:01;;;;;;;12.33;9.10;;;;;;;;;;5093068;28;20199;-77
2024/01/15 01:18:28;;;;;;;19.53;12.40;;;;;;;;;;5093615;28;20242;-78
2024/01/15 01:20:55;;;;;;;16.70;11.23;;;;;;;;;;5093992;28;20193;-77
2024/01/15 01:23:21;;;;;;;15.57;9.80;;;;;;;;;;5093356;28;20203;-77
2024/01/15 01:25:49;;;;;;;16.03;9.33;;;;;;;;;;5093625;28;20227;-77
2024/01/15 01:28:16;;;;;;;12.30;9.03;;;;;;;;;;5092665;28;20231;-77
2024/01/15 01:30:43;;;;;;;45.87;24.77;;;;;;;;;;5090945;28;20751;-78
2024/01/15 01:33:13;;;;;;;78.30;40.30;;;;;;;;;;5092121;28;20208;-77
2024/01/15 01:35:40;;;;;;;99.70;52.63;;;;;;;;;;5093745;28;20307;-77
2024/01/15 01:38:07;;;;;;;78.57;40.87;;;;;;;;;;5092984;28;20196;-78
2024/01/15 01:40:33;;;;;;;42.77;25.93;;;;;;;;;;5093389;28;20257;-78
2024/01/15 01:43:03;;;;;;;36.40;24.10;;;;;;;;;;5092455;28;20219;-78
2024/01/15 01:45:30;;;;;;;29.17;19.93;;;;;;;;;;5092893;28;20200;-78
2024/01/15 01:47:57;;;;;;;24.83;16.63;;;;;;;;;;5093186;28;20210;-78
2024/01/15 01:50:24;;;;;;;23.53;14.77;;;;;;;;;;5092917;28;20208;-78
2024/01/15 01:52:51;;;;;;;17.83;11.90;;;;;;;;;;5093166;28;20203;-78
2024/01/15 01:55:19;;;;;;;19.97;13.23;;;;;;;;;;5092712;28;20204;-77
2024/01/15 01:57:46;;;;;;;20.03;13.20;;;;;;;;;;5091224;28;20200;-78
2024/01/15 02:00:15;;;;;;;20.00;12.83;;;;;;;;;;5092728;28;20207;-77
2024/01/15 02:02:42;;;;;;;18.53;13.70;;;;;;;;;;5092786;28;20211;-77
2024/01/15 02:05:09;;;;;;;20.27;15.03;;;;;;;;;;5092523;28;20200;-78
2024/01/15 02:07:37;;;;;;;21.20;14.20;;;;;;;;;;5092465;28;20227;-78
2024/01/15 02:10:06;;;;;;;14.67;10.87;;;;;;;;;;5092907;28;20203;-77
2024/01/15 02:12:33;;;;;;;18.53;12.57;;;;;;;;;;5092652;28;20228;-78
2024/01/15 02:15:00;;;;;;;16.53;12.40;;;;;;;;;;5092583;28;20204;-78
2024/01/15 02:17:28;;;;;;;15.53;10.37;;;;;;;;;;5091826;28;20678;-78
2024/01/15 02:19:55;;;;;;;13.97;9.80;;;;;;;;;;5092874;28;20253;-78
2024/01/15 02:22:21;;;;;;;15.83;10.63;;;;;;;;;;5092143;28;20205;-78
2024/01/15 02:24:50;;;;;;;13.07;9.00;;;;;;;;;;5091944;28;20674;-78
2024/01/15 02:27:17;;;;;;;14.97;9.93;;;;;;;;;;5092147;28;20281;-78
2024/01/15 02:29:44;;;;;;;15.50;10.57;;;;;;;;;;5092317;28;20224;-80
2024/01/15 02:32:11;;;;;;;12.63;8.57;;;;;;;;;;5078872;28;20200;-78
2024/01/15 02:34:37;;;;;;;12.00;9.03;;;;;;;;;;5091853;28;20200;-78
2024/01/15 02:37:05;;;;;;;18.30;9.53;;;;;;;;;;5091901;28;20208;-78
2024/01/15 02:39:31;;;;;;;13.80;9.20;;;;;;;;;;5092095;28;20204;-78
2024/01/15 02:42:00;;;;;;;13.20;8.30;;;;;;;;;;5092305;28;20193;-78
2024/01/15 02:44:27;;;;;;;14.23;9.83;;;;;;;;;;5091532;28;20608;-78
2024/01/15 02:46:53;;;;;;;13.50;10.00;;;;;;;;;;5091560;28;20227;-78
2024/01/15 02:49:20;;;;;;;15.47;10.83;;;;;;;;;;5091617;28;20238;-78
2024/01/15 02:51:47;;;;;;;12.80;9.93;;;;;;;;;;5092042;28;20197;-78
2024/01/15 02:54:14;;;;;;;30.73;15.37;;;;;;;;;;5091523;28;20204;-78
2024/01/15 02:56:40;;;;;;;86.50;33.80;;;;;;;;;;5091422;28;20704;-78
2024/01/15 02:59:09;;;;;;;51.20;21.93;;;;;;;;;;5091209;28;20208;-78
2024/01/15 03:01:35;;;;;;;21.07;13.00;;;;;;;;;;5091925;28;20205;-78
2024/01/15 03:04:02;;;;;;;15.70;10.03;;;;;;;;;;5091269;28;20246;-78
2024/01/15 03:06:29;;;;;;;24.67;14.10;;;;;;;;;;5091341;28;20717;-78
2024/01/15 03:08:56;;;;;;;92.63;53.10;;;;;;;;;;5090986;28;20208;-78
2024/01/15 03:11:22;;;;;;;31.70;18.70;;;;;;;;;;5091360;28;20200;-78
2024/01/15 03:13:49;;;;;;;23.87;14.40;;;;;;;;;;5091245;28;20200;-78
2024/01/15 03:16:19;;;;;;;17.17;12.23;;;;;;;;;;5091208;28;20223;-78
2024/01/15 03:18:46;;;;;;;21.97;13.50;;;;;;;;;;5091304;28;20204;-78
2024/01/15 03:21:13;;;;;;;15.90;11.87;;;;;;;;;;5091410;28;20701;-78
2024/01/15 03:23:40;;;;;;;16.43;12.13;;;;;;;;;;5090884;28;20204;-78
2024/01/15 03:26:06;;;;;;;19.53;12.77;;;;;;;;;;5090910;28;20228;-78
2024/01/15 03:28:33;;;;;;;19.00;12.20;;;;;;;;;;5090573;28;20752;-78
2024/01/15 03:31:00;;;;;;;17.67;12.43;;;;;;;;;;5091349;28;20584;-78
2024/01/15 03:33:28;;;;;;;14.87;11.60;;;;;;;;;;5090475;28;20207;-78
2024/01/15 03:35:55;;;;;;;19.50;12.07;;;;;;;;;;5091439;28;20208;-78
2024/01/15 03:38:21;;;;;;;20.90;14.40;;;;;;;;;;5090740;28;20571;-78
2024/01/15 03:40:48;;;;;;;21.57;14.23;;;;;;;;;;5091318;28;20204;-78
2024/01/15 03:43:15;;;;;;;20.87;14.33;;;;;;;;;;5104507;28;20208;-78
2024/01/15 03:45:42;;;;;;;21.57;13.27;;;;;;;;;;5091422;28;20208;-78
2024/01/15 03:48:09;;;;;;;22.03;15.87;;;;;;;;;;5090777;28;20228;-79
2024/01/15 03:50:37;;;;;;;19.23;12.10;;;;;;;;;;5090724;28;20693;-79
2024/01/15 03:53:04;;;;;;;19.50;12.27;;;;;;;;;;5090876;28;20201;-79
2024/01/15 03:55:31;;;;;;;57.97;32.37;;;;;;;;;;5091271;28;20189;-79
2024/01/15 03:57:58;;;;;;;36.93;20.00;;;;;;;;;;5090111;28;20200;-79
2024/01/15 04:00:24;;;;;;;20.40;13.13;;;;;;;;;;5090694;28;20200;-79
2024/01/15 04:02:51;;;;;;;16.57;9.73;;;;;;;;;;5090269;28;20205;-79
2024/01/15 04:05:18;;;;;;;10.87;8.47;;;;;;;;;;5090866;28;20200;-79
2024/01/15 04:07:46;;;;;;;14.87;10.43;;;;;;;;;;5089731;28;20664;-78
2024/01/15 04:10:13;;;;;;;20.93;12.40;;;;;;;;;;5090272;28;20207;-79
2024/01/15 04:12:40;;;;;;;21.87;13.27;;;;;;;;;;5090829;28;20212;-78
2024/01/15 04:15:07;;;;;;;23.23;13.17;;;;;;;;;;5090401;28;20207;-78
2024/01/15 04:17:34;;;;;;;17.47;12.27;;;;;;;;;;5090428;28;20215;-79
2024/01/15 04:20:01;;;;;;;16.43;11.37;;;;;;;;;;5090964;28;20196;-79
2024/01/15 04:22:28;;;;;;;14.37;10.63;;;;;;;;;;5093087;28;20200;-78
2024/01/15 04:24:56;;;;;;;36.30;22.67;;;;;;;;;;5094824;28;20200;-79
2024/01/15 04:27:24;;;;;;;36.07;23.53;;;;;;;;;;5105770;28;20277;-79
2024/01/15 04:29:50;;;;;;;27.37;18.63;;;;;;;;;;5094172;28;20200;-79
2024/01/15 04:32:17;;;;;;;33.33;22.57;;;;;;;;;;5094625;28;20200;-79
2024/01/15 04:34:44;;;;;;;25.73;16.80;;;;;;;;;;5094324;28;20211;-79
2024/01/15 04:37:11;;;;;;;18.57;12.07;;;;;;;;;;5094719;28;20208;-79
2024/01/15 04:39:38;;;;;;;24.13;14.83;;;;;;;;;;5094108;28;20205;-78
2024/01/15 04:42:06;;;;;;;16.60;11.43;;;;;;;;;;5092229;28;20235;-77
2024/01/15 04:44:33;;;;;;;15.03;10.90;;;;;;;;;;5093776;28;20695;-81
2024/01/15 04:47:00;;;;;;;13.77;10.10;;;;;;;;;;5094309;28;20231;-82
2024/01/15 04:49:29;;;;;;;58.70;39.97;;;;;;;;;;5094999;28;20200;-81
2024/01/15 04:51:56;;;;;;;31.87;23.77;;;;;;;;;;5094616;28;20629;-84
2024/01/15 04:54:22;;;;;;;18.73;13.23;;;;;;;;;;5094445;28;20219;-85
2024/01/15 04:56:49;;;;;;;22.10;14.13;;;;;;;;;;5094942;28;20223;-85
2024/01/15 04:59:17;;;;;;;19.17;13.77;;;;;;;;;;5094821;28;20292;-85
2024/01/15 05:01:44;;;;;;;18.47;13.43;;;;;;;;;;5094744;28;20212;-86
2024/01/15 05:04:11;;;;;;;17.80;10.30;;;;;;;;;;5094842;28;20196;-85
2024/01/15 05:06:38;;;;;;;18.27;10.53;;;;;;;;;;5095023;28;20636;-86
2024/01/15 05:09:05;;;;;;;21.10;13.63;;;;;;;;;;5094715;28;20207;-85
2024/01/15 05:11:32;;;;;;;19.07;12.53;;;;;;;;;;5094436;28;20249;-86
2024/01/15 05:13:59;;;;;;;14.67;10.43;;;;;;;;;;5094534;28;20593;-84
2024/01/15 05:16:27;;;;;;;18.13;13.63;;;;;;;;;;5094516;28;20682;-85
2024/01/15 05:18:54;;;;;;;22.23;17.20;;;;;;;;;;5094428;28;20212;-85
2024/01/15 05:21:21;;;;;;;20.90;16.57;;;;;;;;;;5094580;28;20209;-85
2024/01/15 05:23:48;;;;;;;20.53;13.57;;;;;;;;;;5094735;28;20211;-85
2024/01/15 05:26:14;;;;;;;20.23;13.47;;;;;;;;;;5091849;28;20200;-83
2024/01/15 05:28:42;;;;;;;15.87;11.90;;;;;;;;;;5092747;28;20232;-79
2024/01/15 05:31:09;;;;;;;16.30;12.60;;;;;;;;;;5093453;28;20204;-80
2024/01/15 05:33:37;;;;;;;19.77;11.73;;;;;;;;;;5091689;28;20200;-80
2024/01/15 05:36:05;;;;;;;20.57;13.90;;;;;;;;;;5093061;28;20269;-80
2024/01/15 05:38:32;;;;;;;15.80;13.10;;;;;;;;;;5092718;28;20289;-80
2024/01/15 05:40:59;;;;;;;11.40;9.07;;;;;;;;;;5092386;28;20204;-80
2024/01/15 05:43:26;;;;;;;14.07;9.13;;;;;;;;;;5091780;28;20208;-80
2024/01/15 05:45:52;;;;;;;12.47;9.07;;;;;;;;;;5092540;28;20258;-79
2024/01/15 05:48:19;;;;;;;14.83;9.93;;;;;;;;;;5091768;28;20224;-79
2024/01/15 05:50:47;;;;;;;13.20;9.97;;;;;;;;;;5092031;28;20228;-79
2024/01/15 05:53:14;;;;;;;16.30;10.03;;;;;;;;;;5078288;28;20208;-80
2024/01/15 05:55:41;;;;;;;14.77;12.20;;;;;;;;;;5092486;28;20300;-80
2024/01/15 05:58:08;;;;;;;17.20;12.23;;;;;;;;;;5092445;28;20698;-79
2024/01/15 06:00:38;;;;;;;16.00;11.10;;;;;;;;;;5091826;28;20203;-79
2024/01/15 06:03:05;;;;;;;16.40;9.83;;;;;;;;;;5092584;28;20196;-79
2024/01/15 06:05:32;;;;;;;17.73;11.33;;;;;;;;;;5092498;28;20207;-79
2024/01/15 06:08:00;;;;;;;51.57;22.33;;;;;;;;;;5092216;28;20695;-79
2024/01/15 06:10:27;;;;;;;36.80;18.10;;;;;;;;;;5092914;28;20196;-79
2024/01/15 06:12:54;;;;;;;21.77;13.53;;;;;;;;;;5092371;28;20192;-79
2024/01/15 06:15:20;;;;;;;19.20;12.37;;;;;;;;;;5092367;28;20215;-79
2024/01/15 06:17:47;;;;;;;16.87;12.30;;;;;;;;;;5092520;28;20211;-79
2024/01/15 06:20:14;;;;;;;18.67;12.87;;;;;;;;;;5092467;28;20207;-80
2024/01/15 06:22:41;;;;;;;14.33;10.97;;;;;;;;;;5092227;28;20203;-79
2024/01/15 06:25:09;;;;;;;15.10;11.40;;;;;;;;;;5092753;28;20207;-79
2024/01/15 06:27:39;;;;;;;169.53;92.87;;;;;;;;;;5092300;28;20220;-80
2024/01/15 06:30:07;;;;;;;74.13;49.77;;;;;;;;;;5092427;28;20200;-79
2024/01/15 06:32:34;;;;;;;62.57;41.33;;;;;;;;;;5091867;28;20211;-80
2024/01/15 06:35:00;;;;;;;48.57;31.03;;;;;;;;;;5092751;28;20204;-80
2024/01/15 06:37:27;;;;;;;34.33;23.90;;;;;;;;;;5092400;28;20204;-79
2024/01/15 06:39:54;;;;;;;51.60;33.13;;;;;;;;;;5091977;28;20196;-79
2024/01/15 06:42:22;;;;;;;54.20;37.20;;;;;;;;;;5091864;28;20230;-80
2024/01/15 06:44:49;;;;;;;59.87;37.67;;;;;;;;;;5091149;28;20196;-80
2024/01/15 06:47:17;;;;;;;47.47;31.40;;;;;;;;;;5092027;28;20227;-80
2024/01/15 06:49:44;;;;;;;43.67;29.03;;;;;;;;;;5091784;28;20204;-80
2024/01/15 06:52:11;;;;;;;34.87;22.97;;;;;;;;;;5091606;28;20212;-79
2024/01/15 06:54:38;;;;;;;30.30;18.93;;;;;;;;;;5091814;28;20583;-80
2024/01/15 06:57:06;;;;;;;40.60;23.60;;;;;;;;;;5092031;28;20200;-80
2024/01/15 06:59:35;;;;;;;32.10;22.63;;;;;;;;;;5091335;28;20718;-79
2024/01/15 07:02:02;;;;;;;31.20;20.00;;;;;;;;;;5091976;28;20243;-79
2024/01/15 07:04:29;;;;;;;36.60;22.63;;;;;;;;;;5091345;28;20201;-80
2024/01/15 07:06:56;;;;;;;47.37;28.33;;;;;;;;;;5091980;28;20215;-80
2024/01/15 07:09:22;;;;;;;45.60;25.90;;;;;;;;;;5091188;28;20212;-80
2024/01/15 07:11:49;;;;;;;59.13;36.93;;;;;;;;;;5092008;28;20207;-80
2024/01/15 07:14:16;;;;;;;95.57;52.03;;;;;;;;;;5091051;28;20662;-81
2024/01/15 07:16:44;;;;;;;79.33;46.87;;;;;;;;;;5091119;28;20589;-81
2024/01/15 07:19:13;;;;;;;60.67;35.67;;;;;;;;;;5078569;28;20262;-80
2024/01/15 07:21:42;;;;;;;28.43;17.23;;;;;;;;;;5091409;28;20258;-79
2024/01/15 07:24:10;;;;;;;32.27;19.97;;;;;;;;;;5091214;28;20212;-79
2024/01/15 07:26:37;;;;;;;34.83;21.80;;;;;;;;;;5091165;28;20204;-79
2024/01/15 07:29:04;;;;;;;37.83;21.93;;;;;;;;;;5091283;28;20235;-80
2024/01/15 07:31:30;;;;;;;35.57;21.90;;;;;;;;;;5091470;28;20234;-80
2024/01/15 07:34:00;;;;;;;32.77;19.90;;;;;;;;;;5091474;28;20199;-82
2024/01/15 07:36:27;;;;;;;26.67;17.73;;;;;;;;;;5091203;28;20211;-83
2024/01/15 07:38:53;;;;;;;32.70;20.47;;;;;;;;;;5090878;28;20204;-82
2024/01/15 07:41:20;;;;;;;31.67;22.03;;;;;;;;;;5091147;28;20666;-83
2024/01/15 07:43:47;;;;;;;35.43;21.40;;;;;;;;;;5091290;28;20674;-81
2024/01/15 07:46:13;;;;;;;39.53;26.10;;;;;;;;;;5090699;28;20627;-81
2024/01/15 07:48:40;;;;;;;35.47;19.60;;;;;;;;;;5090619;28;20227;-80
2024/01/15 07:51:08;;;;;;;27.67;17.00;;;;;;;;;;5090937;28;20207;-81
2024/01/15 07:53:37;;;;;;;23.77;15.47;;;;;;;;;;5090496;28;20203;-81
2024/01/15 07:56:05;;;;;;;29.03;16.03;;;;;;;;;;5090709;28;20589;-80
2024/01/15 07:58:31;;;;;;;24.23;15.13;;;;;;;;;;5091088;28;20203;-80
2024/01/15 08:00:58;;;;;;;28.80;15.57;;;;;;;;;;5090661;28;20204;-80
2024/01/15 08:03:25;;;;;;;25.17;17.87;;;;;;;;;;5090623;28;20219;-78
2024/01/15 08:05:54;;;;;;;21.43;15.27;;;;;;;;;;5090640;28;20200;-77
2024/01/15 08:08:23;;;;;;;21.37;15.30;;;;;;;;;;5090093;28;20307;-78
2024/01/15 08:10:50;;;;;;;26.50;14.97;;;;;;;;;;5091148;28;20224;-77
2024/01/15 08:13:16;;;;;;;18.40;13.73;;;;;;;;;;5090881;28;20204;-77
2024/01/15 08:15:43;;;;;;;25.60;16.07;;;;;;;;;;5090436;28;20200;-77
2024/01/15 08:18:10;;;;;;;26.00;15.30;;;;;;;;;;5090586;28;20196;-77
2024/01/15 08:20:37;;;;;;;32.53;16.57;;;;;;;;;;5090813;28;20196;-78
2024/01/15 08:23:04;;;;;;;26.47;15.90;;;;;;;;;;5090722;28;20204;-77
2024/01/15 08:25:32;;;;;;;30.20;16.13;;;;;;;;;;5090696;28;20196;-77
2024/01/15 08:27:59;;;;;;;23.83;15.00;;;;;;;;;;5090171;28;20285;-77
2024/01/15 08:30:27;;;;;;;20.83;11.90;;;;;;;;;;5090341;28;20197;-77
2024/01/15 08:32:54;;;;;;;22.77;12.37;;;;;;;;;;5090343;28;20300;-77
2024/01/15 08:35:22;;;;;;;21.43;14.50;;;;;;;;;;5090335;28;20201;-77
2024/01/15 08:37:50;;;;;;;22.50;12.23;;;;;;;;;;5090319;28;20333;-77
2024/01/15 08:40:16;;;;;;;20.80;13.37;;;;;;;;;;5090615;28;20197;-77
2024/01/15 08:42:45;;;;;;;37.27;20.70;;;;;;;;;;5090413;28;20259;-76
2024/01/15 08:45:13;;;;;;;38.30;22.00;;;;;;;;;;5090292;28;20200;-76
2024/01/15 08:47:39;;;;;;;35.87;22.70;;;;;;;;;;5089817;28;20208;-76
2024/01/15 08:50:10;;;;;;;37.67;22.60;;;;;;;;;;5090614;28;20201;-76
2024/01/15 08:52:37;;;;;;;32.77;14.97;;;;;;;;;;5089932;28;20207;-76
2024/01/15 08:55:07;;;;;;;14.00;9.93;;;;;;;;;;5090409;28;20205;-76
2024/01/15 08:57:33;;;;;;;13.93;8.17;;;;;;;;;;5090443;28;20427;-76
2024/01/15 09:00:02;;;;;;;10.27;7.43;;;;;;;;;;5089905;28;20196;-77
2024/01/15 09:02:28;;;;;;;16.40;7.77;;;;;;;;;;5090133;28;20208;-77
2024/01/15 09:04:55;;;;;;;13.60;9.13;;;;;;;;;;5090209;28;20204;-76
2024/01/15 09:07:22;;;;;;;10.17;8.47;;;;;;;;;;5090787;28;20640;-77
2024/01/15 09:09:49;;;;;;;12.60;8.30;;;;;;;;;;5094059;28;20689;-76
2024/01/15 09:12:18;;;;;;;20.57;9.67;;;;;;;;;;5093668;28;20682;-76
2024/01/15 09:14:45;;;;;;;23.70;7.83;;;;;;;;;;5093825;28;20204;-77
2024/01/15 09:17:13;;;;;;;13.97;8.07;;;;;;;;;;5093569;28;20204;-77
2024/01/15 09:19:40;;;;;;;12.70;7.83;;;;;;;;;;5093647;28;20636;-77
2024/01/15 09:22:06;;;;;;;14.67;8.13;;;;;;;;;;5093527;28;20224;-76
2024/01/15 09:24:33;;;;;;;14.90;7.63;;;;;;;;;;5093437;28;20197;-76
2024/01/15 09:27:00;;;;;;;12.07;7.30;;;;;;;;;;5093136;28;20204;-76
2024/01/15 09:29:27;;;;;;;12.47;6.63;;;;;;;;;;5092984;28;20232;-77
2024/01/15 09:31:53;;;;;;;9.63;6.77;;;;;;;;;;5093254;28;20200;-76
2024/01/15 09:34:22;;;;;;;11.90;7.23;;;;;;;;;;5093394;28;20597;-76
2024/01/15 09:36:49;;;;;;;12.13;6.10;;;;;;;;;;5093065;28;20551;-76
2024/01/15 09:39:16;;;;;;;7.30;6.20;;;;;;;;;;5093052;28;20196;-77
2024/01/15 09:41:43;;;;;;;13.33;6.73;;;;;;;;;;5093176;28;20200;-77
2024/01/15 09:44:14;;;;;;;10.80;8.70;;;;;;;;;;5093184;28;20204;-77
2024/01/15 09:46:42;;;;;;;8.93;6.70;;;;;;;;;;5093342;28;20200;-76
2024/01/15 09:49:09;;;;;;;27.10;14.80;;;;;;;;;;5092575;28;20270;-78
2024/01/15 09:51:41;;;;;;;19.73;11.30;;;;;;;;;;5080064;28;20283;-79
2024/01/15 09:54:08;;;;;;;8.73;7.10;;;;;;;;;;5093212;28;20204;-78
2024/01/15 09:56:37;;;;;;;10.07;5.83;;;;;;;;;;5093163;28;20296;-78
2024/01/15 09:59:05;;;;;;;8.83;6.20;;;;;;;;;;5092174;28;20254;-78
2024/01/15 10:01:32;;;;;;;8.50;5.13;;;;;;;;;;5093185;28;20228;-78
2024/01/15 10:03:59;;;;;;;10.53;5.13;;;;;;;;;;5092838;28;20233;-78
2024/01/15 10:06:28;;;;;;;8.27;5.33;;;;;;;;;;5092328;28;20227;-78
2024/01/15 10:08:58;;;;;;;9.20;5.40;;;;;;;;;;5092721;28;20680;-78
2024/01/15 10:11:24;;;;;;;7.53;5.40;;;;;;;;;;5092898;28;20250;-79
2024/01/15 10:13:53;;;;;;;6.43;5.33;;;;;;;;;;5092091;28;20196;-78
2024/01/15 10:16:19;;;;;;;6.70;5.67;;;;;;;;;;5093154;28;20235;-76
2024/01/15 10:18:46;;;;;;;8.03;6.00;;;;;;;;;;5091305;28;20200;-76
2024/01/15 10:21:14;;;;;;;6.53;5.27;;;;;;;;;;5092255;28;20201;-76
2024/01/15 10:23:40;;;;;;;6.20;5.17;;;;;;;;;;5092068;28;20207;-76
2024/01/15 10:26:09;;;;;;;11.43;6.37;;;;;;;;;;5092587;28;20212;-76
2024/01/15 10:28:35;;;;;;;7.77;6.20;;;;;;;;;;5091849;28;20231;-77
2024/01/15 10:31:03;;;;;;;9.87;5.60;;;;;;;;;;5092516;28;20254;-76
2024/01/15 10:33:29;;;;;;;9.67;6.60;;;;;;;;;;5091872;28;20192;-76
2024/01/15 10:35:56;;;;;;;8.47;5.83;;;;;;;;;;5092089;28;20605;-76
2024/01/15 10:38:24;;;;;;;14.17;6.37;;;;;;;;;;5091985;28;20270;-76
2024/01/15 10:40:52;;;;;;;8.37;6.17;;;;;;;;;;5092609;28;20200;-76
2024/01/15 10:43:21;;;;;;;8.97;5.07;;;;;;;;;;5091610;28;20218;-77
2024/01/15 10:45:50;;;;;;;7.23;5.50;;;;;;;;;;5092090;28;20204;-77
2024/01/15 10:48:19;;;;;;;10.93;6.57;;;;;;;;;;5091298;28;20296;-77
2024/01/15 10:50:46;;;;;;;12.77;8.57;;;;;;;;;;5092034;28;20279;-77
2024/01/15 10:53:15;;;;;;;23.23;13.87;;;;;;;;;;5091816;28;20201;-77
2024/01/15 10:55:42;;;;;;;27.37;22.60;;;;;;;;;;5091852;28;20226;-77
2024/01/15 10:58:09;;;;;;;36.63;27.13;;;;;;;;;;5091256;28;20592;-78
2024/01/15 11:00:38;;;;;;;32.30;24.97;;;;;;;;;;5091522;28;20215;-77
2024/01/15 11:03:06;;;;;;;39.27;25.60;;;;;;;;;;5091722;28;20206;-76
2024/01/15 11:05:34;;;;;;;38.53;28.60;;;;;;;;;;5091397;28;20242;-76
2024/01/15 11:08:02;;;;;;;23.03;16.77;;;;;;;;;;5091342;28;20193;-76
2024/01/15 11:10:43;;;;;;;19.57;15.47;;;;;;;;;;5091593;28;20250;-76
2024/01/15 11:13:11;;;;;;;18.30;11.83;;;;;;;;;;5091426;28;20204;-76
2024/01/15 11:15:59;;;;;;;19.53;14.87;;;;;;;;;;5091223;28;20279;-76
2024/01/15 11:18:27;;;;;;;16.90;13.07;;;;;;;;;;5091405;28;20195;-77
2024/01/15 11:21:23;;;;;;;15.60;10.63;;;;;;;;;;5091569;28;20196;-76
2024/01/15 11:23:51;;;;;;;11.40;8.77;;;;;;;;;;5091070;28;20196;-76
2024/01/15 11:26:32;;;;;;;12.33;9.53;;;;;;;;;;5091452;28;20200;-76
2024/01/15 11:29:00;;;;;;;16.17;11.17;;;;;;;;;;5090885;28;20239;-76
2024/01/15 11:31:30;;;;;;;13.50;9.77;;;;;;;;;;5091249;28;20207;-76
2024/01/15 11:33:57;;;;;;;16.47;10.93;;;;;;;;;;5090962;28;20200;-76
2024/01/15 11:37:04;;;;;;;16.63;10.03;;;;;;;;;;5091133;28;20701;-76
2024/01/15 11:39:52;;;;;;;15.03;10.47;;;;;;;;;;5091032;28;20654;-76
2024/01/15 11:42:20;;;;;;;21.53;15.20;;;;;;;;;;5057545;28;20215;-76
2024/01/15 11:44:47;;;;;;;14.40;10.93;;;;;;;;;;5090498;28;20207;-76
2024/01/15 11:47:16;;;;;;;14.33;10.40;;;;;;;;;;5091405;28;20207;-76
2024/01/15 11:50:01;;;;;;;16.57;11.27;;;;;;;;;;5090920;28;20220;-76
2024/01/15 11:52:27;;;;;;;15.47;11.97;;;;;;;;;;5090527;28;20302;-76
2024/01/15 11:54:59;;;;;;;34.17;22.27;;;;;;;;;;5090845;28;20207;-76
2024/01/15 11:57:35;;;;;;;14.23;11.27;;;;;;;;;;5090718;28;20673;-76
2024/01/15 12:00:04;;;;;;;14.27;10.37;;;;;;;;;;5091110;28;20224;-76
2024/01/15 12:02:32;;;;;;;13.63;11.10;;;;;;;;;;5090265;28;20678;-76
2024/01/15 12:04:59;;;;;;;13.80;10.63;;;;;;;;;;5090763;28;20192;-76
2024/01/15 12:07:26;;;;;;;14.63;9.83;;;;;;;;;;5090652;28;20201;-76
2024/01/15 12:09:53;;;;;;;12.27;9.27;;;;;;;;;;5090746;28;20232;-76
2024/01/15 12:12:25;;;;;;;20.20;14.03;;;;;;;;;;5090907;28;20196;-76
2024/01/15 12:14:52;;;;;;;20.23;11.70;;;;;;;;;;5090627;28;20207;-76
2024/01/15 12:17:19;;;;;;;15.20;11.53;;;;;;;;;;5090647;28;20246;-76
2024/01/15 12:19:47;;;;;;;16.10;14.13;;;;;;;;;;5090619;28;20203;-76
2024/01/15 12:22:15;;;;;;;15.73;10.83;;;;;;;;;;5090570;28;20682;-77
2024/01/15 12:24:42;;;;;;;19.00;14.33;;;;;;;;;;5090134;28;20231;-77
2024/01/15 12:27:09;;;;;;;18.00;11.80;;;;;;;;;;5090565;28;20605;-76
2024/01/15 12:29:38;;;;;;;16.90;12.80;;;;;;;;;;5090356;28;20239;-76
2024/01/15 12:32:06;;;;;;;17.37;11.17;;;;;;;;;;5090362;28;20201;-76
2024/01/15 12:34:33;;;;;;;19.17;13.80;;;;;;;;;;5090289;28;20203;-76
2024/01/15 12:37:01;;;;;;;17.40;12.77;;;;;;;;;;5090513;28;20220;-76
2024/01/15 12:39:29;;;;;;;21.43;16.13;;;;;;;;;;5090152;28;20678;-76
2024/01/15 12:41:56;;;;;;;18.40;12.70;;;;;;;;;;5077380;28;20208;-76
2024/01/15 12:44:22;;;;;;;26.33;17.73;;;;;;;;;;5094602;28;20273;-77
2024/01/15 12:46:49;;;;;;;22.93;15.17;;;;;;;;;;5094374;28;20192;-76
2024/01/15 12:49:16;;;;;;;22.87;13.63;;;;;;;;;;5094197;28;20224;-76
2024/01/15 12:51:44;;;;;;;24.00;17.13;;;;;;;;;;5080834;28;20774;-77
2024/01/15 12:54:14;;;;;;;21.63;16.30;;;;;;;;;;5093781;28;20237;-77
2024/01/15 12:56:41;;;;;;;19.33;13.00;;;;;;;;;;5094205;28;20196;-76
2024/01/15 12:59:08;;;;;;;29.93;19.53;;;;;;;;;;5093909;28;20208;-76
2024/01/15 13:01:35;;;;;;;22.67;16.43;;;;;;;;;;5093814;28;20261;-76
2024/01/15 13:04:03;;;;;;;23.03;16.17;;;;;;;;;;5093586;28;20204;-76
2024/01/15 13:06:30;;;;;;;19.20;14.40;;;;;;;;;;5094323;28;20279;-76
2024/01/15 13:08:57;;;;;;;18.73;14.00;;;;;;;;;;5093661;28;20207;-76
2024/01/15 13:11:25;;;;;;;19.33;13.17;;;;;;;;;;5094187;28;20287;-76
2024/01/15 13:13:52;;;;;;;14.03;9.87;;;;;;;;;;5093264;28;20689;-76
2024/01/15 13:16:20;;;;;;;14.47;10.17;;;;;;;;;;5094093;28;20208;-76
2024/01/15 13:18:47;;;;;;;17.73;9.67;;;;;;;;;;5093484;28;20200;-76
2024/01/15 13:21:14;;;;;;;16.67;11.17;;;;;;;;;;5093469;28;20671;-76
2024/01/15 13:23:41;;;;;;;19.60;13.87;;;;;;;;;;5092955;28;20224;-76
2024/01/15 13:26:08;;;;;;;14.97;10.57;;;;;;;;;;5093749;28;20208;-76
2024/01/15 13:28:38;;;;;;;13.40;10.03;;;;;;;;;;5097332;28;20230;-76
2024/01/15 13:31:05;;;;;;;17.67;12.10;;;;;;;;;;5102715;28;20834;-76
2024/01/15 13:33:32;;;;;;;16.63;11.13;;;;;;;;;;5093509;28;20228;-76
2024/01/15 13:35:59;;;;;;;12.70;8.73;;;;;;;;;;5093198;28;20670;-76
2024/01/15 13:38:26;;;;;;;21.37;17.17;;;;;;;;;;5092911;28;20202;-76
2024/01/15 13:40:53;;;;;;;16.10;12.73;;;;;;;;;;5093392;28;20200;-76
2024/01/15 13:43:20;;;;;;;20.67;12.70;;;;;;;;;;5093135;28;20220;-76
2024/01/15 13:45:50;;;;;;;18.53;12.80;;;;;;;;;;5093063;28;20208;-77
2024/01/15 13:48:18;;;;;;;23.20;15.80;;;;;;;;;;5092975;28;20269;-76
2024/01/15 13:50:44;;;;;;;29.80;21.37;;;;;;;;;;5093310;28;20232;-76
2024/01/15 13:53:11;;;;;;;40.27;26.37;;;;;;;;;;5092484;28;20200;-76
2024/01/15 13:55:38;;;;;;;19.77;15.57;;;;;;;;;;5092044;28;20204;-76
2024/01/15 13:58:05;;;;;;;25.27;16.33;;;;;;;;;;5093040;28;20211;-76
2024/01/15 14:00:32;;;;;;;24.60;17.93;;;;;;;;;;5105935;28;20696;-76
2024/01/15 14:03:00;;;;;;;64.00;39.90;;;;;;;;;;5092832;28;20199;-76
2024/01/15 14:05:27;;;;;;;39.57;26.87;;;;;;;;;;5092766;28;20203;-77
2024/01/15 14:07:54;;;;;;;49.73;33.37;;;;;;;;;;5079471;28;20203;-76
2024/01/15 14:10:20;;;;;;;26.20;17.47;;;;;;;;;;5092323;28;20216;-77
2024/01/15 14:12:47;;;;;;;19.40;13.93;;;;;;;;;;5079229;28;20204;-77
2024/01/15 14:15:14;;;;;;;45.60;27.70;;;;;;;;;;5092771;28;20211;-77
2024/01/15 14:17:41;;;;;;;37.80;25.80;;;;;;;;;;5079103;28;20197;-77
2024/01/15 14:20:13;;;;;;;48.07;30.60;;;;;;;;;;5092721;28;20277;-77
2024/01/15 14:22:40;;;;;;;43.20;30.40;;;;;;;;;;5079780;28;20231;-76
2024/01/15 14:25:07;;;;;;;37.10;22.60;;;;;;;;;;5092277;28;20243;-76